createdAt,value
2022-12-03T00:00:56.825Z,100998.13
2022-12-03T00:03:25.287Z,101009.47
2022-12-03T00:05:53.735Z,100996.91
2022-12-03T00:08:22.013Z,101005.81
2022-12-03T00:10:50.016Z,100993.59
2022-12-03T00:13:18.570Z,101001.19
2022-12-03T00:15:46.757Z,100991.22
2022-12-03T00:18:15.272Z,100990.19
2022-12-03T00:20:43.247Z,101000.84
2022-12-03T00:23:11.676Z,100984.78
2022-12-03T00:25:39.768Z,100981.34
2022-12-03T00:28:08.103Z,100993.59
2022-12-03T00:30:36.207Z,100993.09
2022-12-03T00:33:05.635Z,100990.84
2022-12-03T00:35:33.583Z,100980.00
2022-12-03T00:38:02.014Z,100978.28
2022-12-03T00:40:30.102Z,100977.81
2022-12-03T00:42:58.453Z,100977.31
2022-12-03T00:45:26.496Z,100970.19
2022-12-03T00:47:55.181Z,100970.88
2022-12-03T00:50:23.614Z,100971.97
2022-12-03T00:52:53.294Z,100971.84
2022-12-03T00:55:21.392Z,100964.09
2022-12-03T00:57:49.813Z,100967.22
2022-12-03T01:00:18.232Z,100969.03
2022-12-03T01:02:46.543Z,100974.75
2022-12-03T01:05:14.658Z,100975.00
2022-12-03T01:07:43.242Z,100977.28
2022-12-03T01:10:11.854Z,100971.34
2022-12-03T01:12:40.877Z,100971.63
2022-12-03T01:15:10.063Z,100976.38
2022-12-03T01:17:39.162Z,100978.41
2022-12-03T01:20:09.851Z,100972.72
2022-12-03T01:22:38.341Z,100967.47
2022-12-03T01:25:07.133Z,100972.44
2022-12-03T01:27:35.638Z,100975.28
2022-12-03T01:30:05.645Z,100969.97
2022-12-03T01:32:34.134Z,100974.50
2022-12-03T01:35:02.133Z,100966.03
2022-12-03T01:37:30.649Z,100975.38
2022-12-03T01:39:58.686Z,100973.38
2022-12-03T01:42:30.558Z,100976.31
2022-12-03T01:45:00.734Z,100978.63
2022-12-03T01:47:32.611Z,100974.00
2022-12-03T01:50:08.731Z,100968.91
2022-12-03T01:52:39.795Z,100974.78
2022-12-03T01:55:15.049Z,100977.56
2022-12-03T01:57:50.686Z,100980.38
2022-12-03T02:00:22.336Z,100975.53
2022-12-03T02:02:57.206Z,100963.63
2022-12-03T02:05:31.482Z,100970.53
2022-12-03T02:08:01.066Z,100960.28
2022-12-03T02:10:36.474Z,100953.72
2022-12-03T03:07:08.866Z,100929.19
2022-12-03T03:09:37.895Z,100930.97
2022-12-03T03:12:06.335Z,100919.94
2022-12-03T03:14:35.746Z,100926.50
2022-12-03T03:17:04.625Z,100923.94
2022-12-03T03:19:34.516Z,100915.84
2022-12-03T03:22:02.690Z,100917.22
2022-12-03T03:24:31.046Z,100924.25
2022-12-03T03:26:59.077Z,100925.63
2022-12-03T03:29:27.556Z,100924.13
2022-12-03T03:31:56.502Z,100924.81
2022-12-03T03:34:25.738Z,100921.19
2022-12-03T03:36:53.978Z,100918.97
2022-12-03T03:39:22.850Z,100920.59
2022-12-03T03:41:51.036Z,100929.22
2022-12-03T03:44:19.619Z,100932.06
2022-12-03T03:46:49.056Z,100926.75
2022-12-03T03:49:17.676Z,100930.72
2022-12-03T03:51:45.705Z,100930.34
2022-12-03T03:54:14.956Z,100930.31
2022-12-03T03:56:43.329Z,100921.63
2022-12-03T03:59:14.238Z,100929.34
2022-12-03T04:01:45.066Z,100916.09
2022-12-03T04:04:21.083Z,100920.28
2022-12-03T04:06:49.495Z,100919.66
2022-12-03T04:09:17.914Z,100906.63
2022-12-03T04:12:04.438Z,100907.91
2022-12-03T04:14:32.926Z,100911.50
2022-12-03T04:17:01.147Z,100907.47
2022-12-03T04:19:30.747Z,100908.59
2022-12-03T04:22:17.811Z,100913.13
2022-12-03T04:24:47.616Z,100908.19
2022-12-03T04:27:34.006Z,100911.13
2022-12-03T04:30:02.418Z,100907.63
2022-12-03T04:32:49.037Z,100905.66
2022-12-03T04:35:35.877Z,100905.16
2022-12-03T04:38:04.078Z,100904.59
2022-12-03T04:40:50.946Z,100899.91
2022-12-03T04:43:18.916Z,100896.03
2022-12-03T04:45:48.346Z,100896.97
2022-12-03T04:48:16.610Z,100901.56
2022-12-03T04:50:44.937Z,100899.22
2022-12-03T04:53:13.165Z,100898.03
2022-12-03T04:55:41.718Z,100889.06
2022-12-03T04:58:10.626Z,100895.44
2022-12-03T05:00:40.213Z,100890.84
2022-12-03T05:03:08.405Z,100892.00
2022-12-03T05:05:36.842Z,100899.22
2022-12-03T05:08:05.151Z,100896.59
2022-12-03T05:10:33.861Z,100899.75
2022-12-03T05:13:01.869Z,100895.81
2022-12-03T05:15:30.226Z,100887.78
2022-12-03T05:17:58.333Z,100888.09
2022-12-03T05:20:41.648Z,100888.41
2022-12-03T05:23:11.945Z,100876.78
2022-12-03T05:25:41.778Z,100886.63
2022-12-03T05:28:09.977Z,100889.13
2022-12-03T05:30:38.373Z,100888.19
2022-12-03T05:33:06.416Z,100879.19
2022-12-03T05:35:34.905Z,100885.31
2022-12-03T05:38:03.774Z,100883.50
2022-12-03T05:40:32.166Z,100888.94
2022-12-03T05:43:02.167Z,100880.75
2022-12-03T05:45:32.106Z,100885.13
2022-12-03T05:48:01.298Z,100890.84
2022-12-03T05:50:32.567Z,100883.13
2022-12-03T05:53:16.808Z,100888.78
2022-12-03T05:55:45.239Z,100877.44
2022-12-03T05:58:13.285Z,100883.44
2022-12-03T06:00:43.043Z,100880.78
2022-12-03T06:03:11.470Z,100881.97
2022-12-03T06:05:40.215Z,100882.94
2022-12-03T06:08:08.335Z,100888.00
2022-12-03T06:10:37.840Z,100883.94
2022-12-03T06:13:05.865Z,100882.25
2022-12-03T06:15:38.762Z,100883.34
2022-12-03T06:18:10.622Z,100879.59
2022-12-03T06:20:39.631Z,100879.56
2022-12-03T06:23:07.610Z,100881.06
2022-12-03T06:25:35.949Z,100873.34
2022-12-03T06:28:04.118Z,100875.22
2022-12-03T06:30:34.657Z,100873.97
2022-12-03T06:33:02.790Z,100871.59
2022-12-03T06:35:31.132Z,100876.13
2022-12-03T06:37:59.211Z,100878.91
2022-12-03T06:40:27.986Z,100876.16
2022-12-03T06:42:56.014Z,100874.25
2022-12-03T06:45:24.433Z,100870.41
2022-12-03T06:47:52.555Z,100874.75
2022-12-03T06:50:22.053Z,100884.16
2022-12-03T06:52:50.164Z,100878.00
2022-12-03T06:55:18.502Z,100883.72
2022-12-03T06:57:46.440Z,100879.56
2022-12-03T07:00:15.387Z,100881.06
2022-12-03T07:02:45.876Z,100880.25
2022-12-03T07:05:15.378Z,100874.47
2022-12-03T07:07:43.514Z,100870.50
2022-12-03T07:10:15.151Z,100872.06
2022-12-03T07:12:43.166Z,100877.50
2022-12-03T07:15:12.589Z,100878.50
2022-12-03T07:17:40.718Z,100878.28
2022-12-03T07:20:10.552Z,100882.03
2022-12-03T07:22:38.838Z,100876.44
2022-12-03T07:25:08.558Z,100876.13
2022-12-03T07:27:36.529Z,100878.19
2022-12-03T07:30:09.669Z,100874.72
2022-12-03T07:32:37.767Z,100870.16
2022-12-03T07:35:08.059Z,100870.38
2022-12-03T07:37:36.110Z,100866.88
2022-12-03T07:40:05.930Z,100866.41
2022-12-03T07:42:34.021Z,100864.72
2022-12-03T07:45:02.602Z,100873.97
2022-12-03T07:47:30.699Z,100876.28
2022-12-03T07:49:59.043Z,100870.06
2022-12-03T07:52:27.088Z,100865.19
2022-12-03T07:54:55.715Z,100859.38
2022-12-03T07:57:24.449Z,100864.28
2022-12-03T07:59:53.969Z,100863.53
2022-12-03T08:02:22.206Z,100866.09
2022-12-03T08:04:51.422Z,100873.19
2022-12-03T08:07:24.755Z,100866.28
2022-12-03T08:09:55.421Z,100858.28
2022-12-03T08:12:40.453Z,100869.41
2022-12-03T08:15:18.232Z,100864.56
2022-12-03T08:17:48.119Z,100866.72
2022-12-03T08:20:20.928Z,100875.81
2022-12-03T08:22:51.579Z,100872.59
2022-12-03T08:25:31.892Z,100866.88
2022-12-03T08:28:21.929Z,100869.66
2022-12-03T08:31:02.263Z,100864.38
2022-12-03T08:33:35.691Z,100861.69
2022-12-03T08:36:15.229Z,100863.50
2022-12-03T08:38:59.618Z,100862.28
2022-12-03T08:41:48.964Z,100857.84
2022-12-03T08:44:28.170Z,100855.63
2022-12-03T08:47:13.171Z,100853.78
2022-12-03T08:49:41.760Z,100849.66
2022-12-03T08:52:15.543Z,100845.41
2022-12-03T08:54:46.290Z,100842.22
2022-12-03T08:57:35.008Z,100842.00
2022-12-03T09:00:20.617Z,100843.69
2022-12-03T09:02:52.981Z,100846.91
2022-12-03T09:05:28.837Z,100843.69
2022-12-03T09:07:57.383Z,100838.22
2022-12-03T09:10:25.565Z,100837.53
2022-12-03T09:12:54.008Z,100836.75
2022-12-03T09:15:21.967Z,100840.91
2022-12-03T09:17:51.658Z,100842.81
2022-12-03T09:20:19.843Z,100837.59
2022-12-03T09:22:48.730Z,100837.66
2022-12-03T09:25:17.391Z,100836.81
2022-12-03T09:27:46.211Z,100834.94
2022-12-03T09:30:14.359Z,100836.25
2022-12-03T09:32:44.079Z,100841.25
2022-12-03T09:35:12.173Z,100837.13
2022-12-03T09:37:41.478Z,100833.06
2022-12-03T09:40:11.296Z,100839.75
2022-12-03T09:42:40.448Z,100838.13
2022-12-03T09:45:12.622Z,100823.50
2022-12-03T09:47:46.087Z,100833.78
2022-12-03T09:50:16.479Z,100833.25
2022-12-03T09:52:45.729Z,100824.94
2022-12-03T09:55:24.040Z,100820.38
2022-12-03T09:57:54.060Z,100810.34
2022-12-03T10:00:26.242Z,100813.75
2022-12-03T10:02:59.680Z,100807.69
2022-12-03T10:05:29.752Z,100804.69
2022-12-03T10:08:07.250Z,100794.16
2022-12-03T10:10:36.951Z,100800.47
2022-12-03T10:13:06.732Z,100786.63
2022-12-03T10:15:34.830Z,100787.47
2022-12-03T10:18:18.421Z,100787.16
2022-12-03T10:20:46.780Z,100789.53
2022-12-03T10:23:27.757Z,100785.13
2022-12-03T10:25:57.279Z,100778.53
2022-12-03T10:28:47.402Z,100777.72
2022-12-03T10:31:15.922Z,100782.31
2022-12-03T10:33:47.463Z,100773.97
2022-12-03T10:36:21.614Z,100774.13
2022-12-03T10:39:16.680Z,100774.75
2022-12-03T10:41:45.486Z,100772.53
2022-12-03T10:44:22.929Z,100776.00
2022-12-03T10:47:21.291Z,100769.38
2022-12-03T10:50:03.553Z,100761.00
2022-12-03T10:52:32.539Z,100758.03
2022-12-03T10:55:02.118Z,100763.69
2022-12-03T10:57:30.260Z,100769.84
2022-12-03T10:59:58.900Z,100767.50
2022-12-03T11:02:26.970Z,100775.94
2022-12-03T11:04:55.865Z,100774.09
2022-12-03T11:07:26.405Z,100777.88
2022-12-03T11:09:56.969Z,100788.28
2022-12-03T11:12:28.042Z,100779.47
2022-12-03T11:15:05.307Z,100778.97
2022-12-03T11:17:50.860Z,100771.44
2022-12-03T11:20:24.782Z,100769.69
2022-12-03T11:22:56.944Z,100771.28
2022-12-03T11:25:26.773Z,100766.41
2022-12-03T11:28:13.887Z,100758.53
2022-12-03T11:30:51.615Z,100762.16
2022-12-03T11:33:35.782Z,100769.41
2022-12-03T11:36:04.147Z,100759.28
2022-12-03T11:38:42.662Z,100749.19
2022-12-03T11:41:24.319Z,100750.66
2022-12-03T11:43:52.323Z,100748.88
2022-12-03T11:46:37.222Z,100742.31
2022-12-03T11:49:25.359Z,100737.06
2022-12-03T11:51:53.742Z,100735.31
2022-12-03T11:54:23.623Z,100722.59
2022-12-03T11:56:56.339Z,100733.63
2022-12-03T11:59:24.360Z,100723.09
2022-12-03T12:01:52.629Z,100724.78
2022-12-03T12:04:36.264Z,100715.97
2022-12-03T12:07:04.688Z,100712.66
2022-12-03T12:09:49.470Z,100711.97
2022-12-03T12:12:30.963Z,100709.34
2022-12-03T12:14:59.983Z,100715.16
2022-12-03T12:17:33.984Z,100706.97
2022-12-03T12:20:27.809Z,100707.78
2022-12-03T12:22:56.423Z,100695.47
2022-12-03T12:25:30.641Z,100702.06
2022-12-03T12:27:58.960Z,100704.78
2022-12-03T12:30:27.008Z,100699.41
2022-12-03T12:33:10.469Z,100708.88
2022-12-03T12:35:38.582Z,100708.06
2022-12-03T12:38:06.957Z,100708.41
2022-12-03T12:40:37.082Z,100708.25
2022-12-03T12:43:16.420Z,100709.56
2022-12-03T12:45:47.348Z,100706.72
2022-12-03T12:48:32.158Z,100703.59
2022-12-03T12:51:12.272Z,100706.75
2022-12-03T12:53:43.165Z,100696.69
2022-12-03T12:56:23.875Z,100699.22
2022-12-03T12:58:53.636Z,100700.91
2022-12-03T13:01:28.988Z,100690.84
2022-12-03T13:03:58.631Z,100683.31
2022-12-03T13:06:29.112Z,100691.00
2022-12-03T13:09:01.420Z,100679.53
2022-12-03T13:11:46.039Z,100687.41
2022-12-03T13:14:19.456Z,100676.38
2022-12-03T13:16:50.179Z,100674.81
2022-12-03T13:19:23.257Z,100673.88
2022-12-03T13:21:56.727Z,100677.00
2022-12-03T13:24:34.060Z,100667.44
2022-12-03T13:27:20.325Z,100677.66
2022-12-03T13:30:14.141Z,100674.31
2022-12-03T13:32:43.105Z,100680.03
2022-12-03T13:35:30.622Z,100683.66
2022-12-03T13:37:59.529Z,100684.56
2022-12-03T13:40:31.563Z,100666.81
2022-12-03T13:42:59.847Z,100674.66
2022-12-03T13:45:45.533Z,100678.75
2022-12-03T13:48:25.893Z,100672.16
2022-12-03T13:50:54.731Z,100669.63
2022-12-03T13:53:25.910Z,100664.91
2022-12-03T13:56:15.864Z,100665.88
2022-12-03T13:58:43.980Z,100665.06
2022-12-03T14:01:12.420Z,100658.28
2022-12-03T14:03:40.551Z,100662.56
2022-12-03T14:06:09.097Z,100668.34
2022-12-03T14:08:38.522Z,100668.34
2022-12-03T14:11:08.543Z,100671.38
2022-12-03T14:13:37.512Z,100666.94
2022-12-03T14:16:06.110Z,100666.78
2022-12-03T14:18:35.731Z,100661.13
2022-12-03T14:21:04.130Z,100662.06
2022-12-03T14:23:32.176Z,100666.94
2022-12-03T14:26:00.780Z,100667.59
2022-12-03T14:28:28.797Z,100669.31
2022-12-03T14:30:57.279Z,100668.69
2022-12-03T14:33:28.350Z,100674.19
2022-12-03T14:35:57.702Z,100677.84
2022-12-03T14:38:25.781Z,100675.13
2022-12-03T14:40:54.461Z,100676.06
2022-12-03T14:43:22.550Z,100673.53
2022-12-03T14:45:52.105Z,100678.59
2022-12-03T14:48:22.602Z,100686.47
2022-12-03T14:50:51.154Z,100683.91
2022-12-03T14:53:25.596Z,100677.78
2022-12-03T14:55:57.230Z,100681.06
2022-12-03T14:58:27.151Z,100685.31
2022-12-03T15:00:55.638Z,100680.44
2022-12-03T15:03:23.691Z,100686.59
2022-12-03T15:05:52.011Z,100679.38
2022-12-03T15:08:20.268Z,100686.63
2022-12-03T15:10:48.884Z,100679.03
2022-12-03T15:13:16.970Z,100680.00
2022-12-03T15:15:45.525Z,100680.50
2022-12-03T15:18:13.631Z,100675.75
2022-12-03T15:20:41.971Z,100677.97
2022-12-03T15:23:14.324Z,100683.31
2022-12-03T15:25:43.200Z,100683.19
2022-12-03T15:28:11.303Z,100680.03
2022-12-03T15:30:39.782Z,100681.59
2022-12-03T15:33:08.500Z,100679.53
2022-12-03T15:35:37.178Z,100680.31
2022-12-03T15:38:05.342Z,100686.94
2022-12-03T15:40:34.761Z,100689.31
2022-12-03T15:43:02.801Z,100695.59
2022-12-03T15:45:32.679Z,100695.44
2022-12-03T15:48:01.461Z,100694.81
2022-12-03T15:50:30.269Z,100699.69
2022-12-03T15:52:58.921Z,100694.03
2022-12-03T15:55:27.380Z,100694.47
2022-12-03T15:57:55.584Z,100695.13
2022-12-03T16:00:24.203Z,100697.94
2022-12-03T16:02:53.061Z,100697.66
2022-12-03T16:05:21.663Z,100699.38
2022-12-03T16:07:49.864Z,100703.63
2022-12-03T16:10:21.630Z,100702.03
2022-12-03T16:12:49.804Z,100700.16
2022-12-03T16:15:21.002Z,100706.78
2022-12-03T16:17:53.387Z,100703.28
2022-12-03T16:20:21.851Z,100705.97
2022-12-03T16:22:49.911Z,100711.47
2022-12-03T16:25:18.741Z,100712.41
2022-12-03T16:27:46.791Z,100701.72
2022-12-03T16:30:15.421Z,100707.38
2022-12-03T16:32:43.651Z,100709.88
2022-12-03T16:35:12.010Z,100696.66
2022-12-03T16:37:40.081Z,100701.41
2022-12-03T16:40:09.771Z,100708.94
2022-12-03T16:42:37.892Z,100704.88
2022-12-03T16:45:10.134Z,100710.53
2022-12-03T16:47:38.704Z,100703.13
2022-12-03T16:50:10.690Z,100700.78
2022-12-03T16:52:42.951Z,100712.91
2022-12-03T16:55:12.410Z,100707.38
2022-12-03T16:57:40.424Z,100720.91
2022-12-03T17:00:09.480Z,100713.97
2022-12-03T17:02:37.756Z,100714.44
2022-12-03T17:05:06.852Z,100711.66
2022-12-03T17:07:34.985Z,100717.44
2022-12-03T17:10:04.692Z,100711.31
2022-12-03T17:13:01.205Z,100714.59
2022-12-03T17:15:23.455Z,100716.31
2022-12-03T17:17:51.692Z,100715.06
2022-12-03T17:20:20.523Z,100713.34
2022-12-03T17:22:48.892Z,100710.19
2022-12-03T17:25:17.705Z,100706.13
2022-12-03T17:27:46.181Z,100722.31
2022-12-03T17:30:16.032Z,100714.78
2022-12-03T17:32:44.544Z,100719.63
2022-12-03T17:35:13.544Z,100722.47
2022-12-03T17:37:41.701Z,100715.22
2022-12-03T17:40:13.414Z,100721.50
2022-12-03T17:42:42.060Z,100720.22
2022-12-03T17:45:11.290Z,100720.59
2022-12-03T17:47:39.773Z,100718.41
2022-12-03T17:50:09.291Z,100717.91
2022-12-03T17:52:37.366Z,100717.75
2022-12-03T17:55:14.176Z,100711.44
2022-12-03T17:57:46.329Z,100713.63
2022-12-03T18:00:15.096Z,100713.34
2022-12-03T18:02:43.298Z,100714.63
2022-12-03T18:05:11.892Z,100715.16
2022-12-03T18:07:40.264Z,100710.75
2022-12-03T18:10:08.877Z,100717.66
2022-12-03T18:12:37.034Z,100712.53
2022-12-03T18:15:05.838Z,100708.78
2022-12-03T18:17:34.015Z,100710.13
2022-12-03T18:20:03.364Z,100708.78
2022-12-03T18:22:31.666Z,100713.50
2022-12-03T18:25:00.359Z,100703.84
2022-12-03T18:27:28.440Z,100702.44
2022-12-03T18:29:57.524Z,100704.19
2022-12-03T18:32:29.334Z,100709.19
2022-12-03T18:34:59.702Z,100702.53
2022-12-03T18:37:29.537Z,100705.03
2022-12-03T18:39:59.133Z,100697.56
2022-12-03T18:42:27.716Z,100700.63
2022-12-03T18:44:57.319Z,100692.44
2022-12-03T18:47:28.732Z,100693.59
2022-12-03T18:49:57.790Z,100691.31
2022-12-03T18:52:26.344Z,100686.53
2022-12-03T18:54:57.112Z,100689.47
2022-12-03T18:57:25.171Z,100689.81
2022-12-03T18:59:53.884Z,100685.69
2022-12-03T19:05:12.232Z,100686.78
2022-12-03T19:07:40.530Z,100689.91
2022-12-03T19:10:11.422Z,100692.78
2022-12-03T19:12:39.911Z,100694.06
2022-12-03T19:15:09.290Z,100682.31
2022-12-03T19:17:39.991Z,100683.09
2022-12-03T19:20:12.005Z,100679.09
2022-12-03T19:22:40.464Z,100684.88
2022-12-03T19:25:09.809Z,100685.16
2022-12-03T19:27:38.344Z,100692.28
2022-12-03T19:30:09.375Z,100682.56
2022-12-03T19:32:37.742Z,100690.06
2022-12-03T19:35:07.942Z,100687.97
2022-12-03T19:37:36.404Z,100689.44
2022-12-03T19:40:06.054Z,100681.44
2022-12-03T19:42:34.383Z,100681.28
2022-12-03T19:45:03.313Z,100680.38
2022-12-03T19:47:33.734Z,100676.44
2022-12-03T19:50:03.034Z,100675.03
2022-12-03T19:52:31.433Z,100677.78
2022-12-03T19:55:00.098Z,100680.63
2022-12-03T19:57:29.027Z,100683.13
2022-12-03T19:59:57.918Z,100681.28
2022-12-03T20:02:26.613Z,100692.91
2022-12-03T20:04:55.504Z,100694.94
2022-12-03T20:07:23.815Z,100689.16
2022-12-03T20:09:53.037Z,100691.19
2022-12-03T20:12:21.807Z,100686.00
2022-12-03T20:14:52.125Z,100684.13
2022-12-03T20:17:20.535Z,100683.66
2022-12-03T20:19:49.507Z,100686.78
2022-12-03T20:22:17.806Z,100682.75
2022-12-03T20:24:46.625Z,100681.47
2022-12-03T20:27:19.637Z,100680.88
2022-12-03T20:29:51.480Z,100685.44
2022-12-03T20:32:19.941Z,100684.78
2022-12-03T20:34:50.195Z,100678.84
2022-12-03T20:37:18.508Z,100670.38
2022-12-03T20:39:50.353Z,100669.13
2022-12-03T20:42:18.705Z,100668.03
2022-12-03T20:44:47.525Z,100665.50
2022-12-03T20:47:16.704Z,100668.19
2022-12-03T20:49:46.165Z,100664.72
2022-12-03T20:52:14.938Z,100652.00
2022-12-03T20:54:45.275Z,100656.06
2022-12-03T20:57:13.536Z,100641.13
2022-12-03T20:59:42.249Z,100636.28
2022-12-03T21:02:11.371Z,100641.28
2022-12-03T21:04:40.387Z,100637.53
2022-12-03T21:07:08.821Z,100637.22
2022-12-03T21:09:37.826Z,100629.53
2022-12-03T21:12:06.247Z,100627.31
2022-12-03T21:14:36.187Z,100626.09
2022-12-03T21:17:09.089Z,100624.81
2022-12-03T21:19:38.727Z,100635.69
2022-12-03T21:22:07.556Z,100637.72
2022-12-03T21:24:36.776Z,100631.88
2022-12-03T21:27:05.191Z,100629.53
2022-12-03T21:29:33.874Z,100627.00
2022-12-03T21:32:02.161Z,100627.31
2022-12-03T21:34:36.081Z,100624.03
2022-12-03T21:37:05.246Z,100631.88
2022-12-03T21:39:34.027Z,100620.72
2022-12-03T21:42:18.791Z,100621.03
2022-12-03T21:44:52.174Z,100619.94
2022-12-03T21:47:20.845Z,100612.22
2022-12-03T21:49:49.668Z,100614.75
2022-12-03T21:52:18.100Z,100608.59
2022-12-03T21:54:46.854Z,100607.34
2022-12-03T21:57:15.285Z,100611.09
2022-12-03T21:59:43.868Z,100610.81
2022-12-03T22:02:13.081Z,100615.50
2022-12-03T22:04:41.894Z,100623.69
2022-12-03T22:07:10.363Z,100613.47
2022-12-03T22:09:39.706Z,100627.47
2022-12-03T22:12:08.185Z,100619.28
2022-12-03T22:14:38.169Z,100637.38
2022-12-03T22:17:06.455Z,100632.69
2022-12-03T22:19:35.066Z,100625.59
2022-12-03T22:22:03.402Z,100613.34
2022-12-03T22:24:32.132Z,100616.63
2022-12-03T22:27:00.445Z,100615.19
2022-12-03T22:29:29.233Z,100615.97
2022-12-03T22:31:57.572Z,100624.00
2022-12-03T22:34:26.229Z,100619.59
2022-12-03T22:36:54.481Z,100621.19
2022-12-03T22:39:23.144Z,100624.47
2022-12-03T22:41:51.620Z,100625.75
2022-12-03T22:44:20.466Z,100636.75
2022-12-03T22:46:48.839Z,100631.72
2022-12-03T22:49:17.620Z,100640.03
2022-12-03T22:51:47.555Z,100637.06
2022-12-03T22:54:19.431Z,100637.06
2022-12-03T22:56:52.130Z,100638.47
2022-12-03T22:59:20.714Z,100629.22
2022-12-03T23:01:49.046Z,100619.63
2022-12-03T23:04:19.075Z,100619.28
2022-12-03T23:06:47.453Z,100611.28
2022-12-03T23:09:17.256Z,100601.97
2022-12-03T23:11:45.839Z,100602.16
2022-12-03T23:14:14.537Z,100595.69
2022-12-03T23:16:42.700Z,100586.41
2022-12-03T23:19:11.620Z,100580.75
2022-12-03T23:21:39.794Z,100566.91
2022-12-03T23:24:10.528Z,100567.53
2022-12-03T23:26:39.745Z,100550.88
2022-12-03T23:29:09.347Z,100557.28
2022-12-03T23:31:37.611Z,100556.22
2022-12-03T23:34:07.827Z,100553.69
2022-12-03T23:36:36.148Z,100555.25
2022-12-03T23:39:04.607Z,100555.25
2022-12-03T23:41:32.643Z,100551.50
2022-12-03T23:44:02.049Z,100561.84
2022-12-03T23:46:30.301Z,100546.13
2022-12-03T23:49:00.369Z,100551.50
2022-12-03T23:51:28.652Z,100542.19
2022-12-03T23:53:57.209Z,100538.28
2022-12-03T23:56:30.802Z,100534.66
2022-12-03T23:58:59.571Z,100538.56
